createdAt,value
2019-02-19T00:01:36.488Z,81.23
2019-02-19T00:03:44.058Z,81.37
2019-02-19T00:05:51.751Z,81.06
2019-02-19T00:07:59.676Z,81.07
2019-02-19T00:10:07.890Z,80.78
2019-02-19T00:12:15.544Z,81.69
2019-02-19T00:14:23.264Z,81.27
2019-02-19T00:16:30.961Z,81.24
2019-02-19T00:18:38.669Z,81.82
2019-02-19T00:20:46.375Z,82.43
2019-02-19T00:22:54.150Z,82.54
2019-02-19T00:25:01.857Z,82.30
2019-02-19T00:27:09.804Z,82.52
2019-02-19T00:29:17.784Z,82.83
2019-02-19T00:31:25.733Z,82.67
2019-02-19T00:33:33.314Z,82.69
2019-02-19T00:35:41.132Z,82.91
2019-02-19T00:37:49.408Z,82.75
2019-02-19T00:39:57.097Z,82.74
2019-02-19T00:42:04.804Z,82.60
2019-02-19T00:44:12.708Z,82.71
2019-02-19T00:46:20.341Z,82.75
2019-02-19T00:48:28.087Z,82.64
2019-02-19T00:50:35.751Z,82.63
2019-02-19T00:52:43.588Z,82.76
2019-02-19T00:54:51.325Z,82.34
2019-02-19T00:56:59.158Z,82.48
2019-02-19T00:59:06.779Z,81.82
2019-02-19T01:01:17.630Z,82.59
2019-02-19T01:03:25.421Z,82.56
2019-02-19T01:05:33.164Z,82.72
2019-02-19T01:07:40.954Z,82.81
2019-02-19T01:09:48.633Z,82.91
2019-02-19T01:11:56.318Z,82.48
2019-02-19T01:14:04.200Z,82.65
2019-02-19T01:16:12.081Z,82.90
2019-02-19T01:18:19.689Z,82.57
2019-02-19T01:20:27.479Z,82.77
2019-02-19T01:22:35.222Z,82.48
2019-02-19T01:24:42.836Z,82.62
2019-02-19T01:26:50.267Z,83.07
2019-02-19T01:28:58.413Z,82.91
2019-02-19T01:31:06.166Z,82.51
2019-02-19T01:33:13.922Z,82.60
2019-02-19T01:35:21.561Z,82.53
2019-02-19T01:37:29.157Z,82.78
2019-02-19T01:39:36.979Z,82.70
2019-02-19T01:41:44.973Z,82.67
2019-02-19T01:43:52.739Z,82.93
2019-02-19T01:46:00.444Z,82.36
2019-02-19T01:48:08.552Z,82.92
2019-02-19T01:50:16.310Z,82.26
2019-02-19T01:52:23.931Z,82.80
2019-02-19T01:54:31.672Z,82.54
2019-02-19T01:56:39.324Z,82.48
2019-02-19T01:58:46.901Z,82.08
2019-02-19T02:00:54.763Z,82.89
2019-02-19T02:03:02.183Z,82.87
2019-02-19T02:05:09.875Z,82.63
2019-02-19T02:07:17.655Z,82.62
2019-02-19T02:09:25.571Z,81.96
2019-02-19T02:11:33.118Z,81.35
2019-02-19T02:13:40.845Z,81.54
2019-02-19T02:15:48.638Z,81.59
2019-02-19T02:17:56.427Z,81.84
2019-02-19T02:20:04.036Z,81.69
2019-02-19T02:22:11.941Z,82.10
2019-02-19T02:24:19.525Z,82.33
2019-02-19T02:26:27.321Z,82.33
2019-02-19T02:28:35.056Z,82.37
2019-02-19T02:30:42.517Z,82.52
2019-02-19T02:32:50.177Z,82.04
2019-02-19T02:34:57.843Z,82.90
2019-02-19T02:37:05.596Z,82.84
2019-02-19T02:39:13.369Z,82.41
2019-02-19T02:41:21.136Z,83.09
2019-02-19T02:43:28.760Z,82.85
2019-02-19T02:45:36.547Z,82.99
2019-02-19T02:47:44.365Z,82.05
2019-02-19T02:49:52.116Z,81.69
2019-02-19T02:51:59.935Z,82.14
2019-02-19T02:54:07.695Z,81.91
2019-02-19T02:56:15.407Z,81.48
2019-02-19T02:58:22.951Z,81.34
2019-02-19T03:00:30.769Z,81.69
2019-02-19T03:02:38.607Z,81.70
2019-02-19T03:04:46.292Z,81.46
2019-02-19T03:07:00.123Z,81.72
2019-02-19T03:09:08.052Z,81.55
2019-02-19T03:11:15.807Z,82.51
2019-02-19T03:13:23.480Z,82.03
2019-02-19T03:15:31.082Z,81.96
2019-02-19T03:17:38.873Z,81.68
2019-02-19T03:19:46.561Z,81.44
2019-02-19T03:21:54.211Z,81.69
2019-02-19T03:24:01.906Z,81.96
2019-02-19T03:26:09.887Z,82.04
2019-02-19T03:28:17.514Z,81.51
2019-02-19T03:30:25.428Z,81.15
2019-02-19T03:32:33.242Z,81.34
2019-02-19T03:34:40.797Z,81.22
2019-02-19T03:36:48.517Z,81.16
2019-02-19T03:38:56.220Z,81.46
2019-02-19T03:41:04.691Z,82.35
2019-02-19T03:43:12.410Z,81.85
2019-02-19T03:45:20.317Z,82.11
2019-02-19T03:47:28.068Z,81.94
2019-02-19T03:49:35.799Z,81.42
2019-02-19T03:51:43.478Z,82.08
2019-02-19T03:53:51.208Z,81.77
2019-02-19T03:55:58.902Z,81.84
2019-02-19T03:58:06.754Z,81.72
2019-02-19T04:00:14.588Z,82.56
2019-02-19T04:02:22.264Z,82.71
2019-02-19T04:04:30.222Z,82.75
2019-02-19T04:06:38.037Z,83.11
2019-02-19T04:08:45.791Z,82.98
2019-02-19T04:10:53.598Z,82.92
2019-02-19T04:13:01.422Z,82.86
2019-02-19T04:15:09.367Z,83.33
2019-02-19T04:17:17.224Z,82.84
2019-02-19T04:19:24.977Z,82.75
2019-02-19T04:21:32.688Z,82.45
2019-02-19T04:23:40.502Z,82.73
2019-02-19T04:25:48.246Z,82.79
2019-02-19T04:27:56.049Z,82.77
2019-02-19T04:30:03.705Z,82.87
2019-02-19T04:32:11.512Z,82.80
2019-02-19T04:34:19.227Z,82.83
2019-02-19T04:36:26.997Z,82.92
2019-02-19T04:38:34.693Z,82.56
2019-02-19T04:40:42.443Z,82.70
2019-02-19T04:42:50.153Z,82.76
2019-02-19T04:44:57.641Z,82.61
2019-02-19T04:47:05.144Z,82.56
2019-02-19T04:49:12.844Z,82.49
2019-02-19T04:51:20.694Z,82.28
2019-02-19T04:53:28.511Z,82.75
2019-02-19T04:55:36.366Z,82.80
2019-02-19T04:57:43.976Z,82.84
2019-02-19T04:59:51.483Z,82.81
2019-02-19T05:01:59.175Z,82.85
2019-02-19T05:04:06.727Z,82.92
2019-02-19T05:06:14.436Z,82.94
2019-02-19T05:08:22.225Z,83.01
2019-02-19T05:10:29.852Z,82.58
2019-02-19T05:12:37.646Z,82.79
2019-02-19T05:14:45.788Z,82.93
2019-02-19T05:16:53.431Z,82.44
2019-02-19T05:19:01.181Z,82.11
2019-02-19T05:21:08.873Z,82.31
2019-02-19T05:23:16.675Z,81.77
2019-02-19T05:25:24.498Z,81.80
2019-02-19T05:27:32.264Z,82.15
2019-02-19T05:29:39.935Z,81.85
2019-02-19T05:31:47.609Z,82.22
2019-02-19T05:33:55.320Z,81.88
2019-02-19T05:36:03.183Z,81.59
2019-02-19T05:38:11.001Z,82.33
2019-02-19T05:40:18.757Z,82.45
2019-02-19T05:42:26.457Z,82.68
2019-02-19T05:44:34.202Z,82.30
2019-02-19T05:46:49.721Z,82.79
2019-02-19T05:48:52.426Z,82.58
2019-02-19T05:51:00.162Z,82.48
2019-02-19T05:53:08.061Z,82.34
2019-02-19T05:55:15.782Z,82.01
2019-02-19T05:57:23.609Z,81.69
2019-02-19T05:59:32.583Z,82.21
2019-02-19T06:01:40.584Z,81.90
2019-02-19T06:03:48.553Z,81.71
2019-02-19T06:05:56.594Z,81.83
2019-02-19T06:08:04.420Z,81.87
2019-02-19T06:10:14.271Z,81.88
2019-02-19T06:12:22.194Z,82.02
2019-02-19T06:14:29.856Z,81.99
2019-02-19T06:16:37.607Z,81.96
2019-02-19T06:18:45.095Z,81.53
2019-02-19T06:20:52.854Z,82.26
2019-02-19T06:23:00.542Z,82.60
2019-02-19T06:25:09.507Z,81.73
2019-02-19T06:27:17.207Z,81.93
2019-02-19T06:29:25.014Z,82.62
2019-02-19T06:31:32.856Z,82.05
2019-02-19T06:33:40.605Z,82.17
2019-02-19T06:35:48.258Z,82.32
2019-02-19T06:37:56.085Z,82.10
2019-02-19T06:40:03.727Z,82.22
2019-02-19T06:42:11.443Z,82.32
2019-02-19T06:44:19.038Z,82.76
2019-02-19T06:46:26.787Z,81.83
2019-02-19T06:48:34.546Z,82.53
2019-02-19T06:50:42.324Z,82.59
2019-02-19T06:52:50.102Z,82.80
2019-02-19T06:54:57.813Z,82.64
2019-02-19T06:57:05.592Z,82.04
2019-02-19T06:59:13.296Z,82.14
2019-02-19T07:01:30.230Z,81.69
2019-02-19T07:03:48.379Z,81.39
2019-02-19T07:05:55.948Z,80.48
2019-02-19T07:08:03.674Z,81.32
2019-02-19T07:10:11.381Z,80.53
2019-02-19T07:12:19.134Z,80.43
2019-02-19T07:14:26.887Z,79.95
2019-02-19T07:16:34.724Z,80.02
2019-02-19T07:18:42.517Z,80.33
2019-02-19T07:20:50.425Z,80.04
2019-02-19T07:22:58.269Z,79.71
2019-02-19T07:25:06.424Z,79.96
2019-02-19T07:27:14.116Z,79.07
2019-02-19T07:29:21.862Z,79.92
2019-02-19T07:31:29.594Z,78.60
2019-02-19T07:33:37.143Z,79.15
2019-02-19T07:35:44.791Z,78.95
2019-02-19T07:37:52.472Z,78.69
2019-02-19T07:40:00.094Z,77.80
2019-02-19T07:42:08.058Z,77.75
2019-02-19T07:44:15.851Z,76.91
2019-02-19T07:46:25.271Z,77.23
2019-02-19T07:48:33.173Z,76.70
2019-02-19T07:50:40.991Z,75.52
2019-02-19T07:52:48.843Z,75.97
2019-02-19T07:54:56.794Z,75.02
2019-02-19T07:57:04.534Z,73.73
2019-02-19T07:59:12.428Z,74.35
2019-02-19T08:01:20.349Z,72.45
2019-02-19T08:03:28.165Z,71.90
2019-02-19T08:05:36.213Z,72.60
2019-02-19T08:07:43.988Z,70.62
2019-02-19T08:09:51.720Z,72.33
2019-02-19T08:11:59.596Z,71.62
2019-02-19T08:14:07.440Z,71.05
2019-02-19T08:16:15.519Z,70.71
2019-02-19T08:18:25.132Z,70.77
2019-02-19T08:20:34.215Z,69.11
2019-02-19T08:22:42.281Z,68.32
2019-02-19T08:24:50.105Z,68.35
2019-02-19T08:26:57.876Z,68.51
2019-02-19T08:29:13.463Z,68.28
2019-02-19T08:31:45.075Z,69.24
2019-02-19T08:33:52.919Z,66.88
2019-02-19T08:36:00.595Z,67.43
2019-02-19T08:38:08.259Z,64.97
2019-02-19T08:40:16.055Z,64.96
2019-02-19T08:42:23.835Z,63.21
2019-02-19T08:44:31.637Z,63.97
2019-02-19T08:46:39.603Z,63.71
2019-02-19T08:48:47.411Z,62.70
2019-02-19T08:50:55.307Z,61.40
2019-02-19T08:53:02.959Z,61.45
2019-02-19T08:55:10.582Z,61.40
2019-02-19T08:57:19.666Z,60.04
2019-02-19T08:59:27.579Z,59.74
2019-02-19T09:01:35.028Z,60.18
2019-02-19T09:03:42.905Z,59.71
2019-02-19T09:05:50.671Z,59.66
2019-02-19T09:07:58.257Z,58.80
2019-02-19T09:10:07.237Z,60.51
2019-02-19T09:12:14.972Z,56.31
2019-02-19T09:14:22.774Z,56.94
2019-02-19T09:16:30.389Z,58.51
2019-02-19T09:18:38.082Z,58.36
2019-02-19T09:20:45.825Z,56.68
2019-02-19T09:22:53.704Z,56.37
2019-02-19T09:25:01.569Z,55.88
2019-02-19T09:27:09.512Z,55.99
2019-02-19T09:29:17.395Z,55.16
2019-02-19T09:31:25.167Z,54.20
2019-02-19T09:33:33.037Z,54.03
2019-02-19T09:35:40.760Z,53.86
2019-02-19T09:37:48.533Z,54.89
2019-02-19T09:39:56.268Z,54.03
2019-02-19T09:42:03.788Z,52.83
2019-02-19T09:44:11.714Z,52.78
2019-02-19T09:46:19.370Z,52.84
2019-02-19T09:48:26.936Z,53.59
2019-02-19T09:50:34.677Z,52.37
2019-02-19T09:52:42.366Z,51.31
2019-02-19T09:54:50.212Z,51.52
2019-02-19T09:56:57.976Z,51.44
2019-02-19T09:59:06.014Z,51.14
2019-02-19T10:01:14.111Z,51.13
2019-02-19T10:03:21.923Z,49.51
2019-02-19T10:05:29.708Z,50.22
2019-02-19T10:07:38.383Z,49.03
2019-02-19T10:09:46.480Z,49.85
2019-02-19T10:11:54.407Z,50.06
2019-02-19T10:14:02.535Z,48.98
2019-02-19T10:16:11.746Z,49.13
2019-02-19T10:18:19.652Z,50.07
2019-02-19T10:20:27.493Z,48.35
2019-02-19T10:22:35.362Z,47.91
2019-02-19T10:24:43.160Z,46.18
2019-02-19T10:26:50.882Z,46.74
2019-02-19T10:28:58.755Z,45.73
2019-02-19T10:31:06.988Z,46.16
2019-02-19T10:33:14.788Z,45.35
2019-02-19T10:35:22.527Z,44.86
2019-02-19T10:37:30.288Z,45.36
2019-02-19T10:39:38.115Z,44.44
2019-02-19T10:41:45.853Z,45.20
2019-02-19T10:43:54.912Z,42.83
2019-02-19T10:46:02.797Z,43.99
2019-02-19T10:48:18.589Z,42.83
2019-02-19T10:50:20.153Z,43.32
2019-02-19T10:52:28.539Z,42.98
2019-02-19T10:54:37.141Z,42.85
2019-02-19T10:56:45.080Z,44.24
2019-02-19T10:58:52.936Z,43.43
2019-02-19T11:01:00.845Z,42.31
2019-02-19T11:03:08.627Z,41.97
2019-02-19T11:05:17.143Z,43.16
2019-02-19T11:07:24.951Z,43.10
2019-02-19T11:09:32.805Z,42.36
2019-02-19T11:11:40.578Z,42.43
2019-02-19T11:13:48.475Z,43.24
2019-02-19T11:15:56.272Z,43.51
2019-02-19T11:18:03.968Z,42.81
2019-02-19T11:20:13.111Z,42.10
2019-02-19T11:22:21.062Z,43.00
2019-02-19T11:24:28.889Z,42.95
2019-02-19T11:26:36.420Z,42.07
2019-02-19T11:28:44.375Z,42.18
2019-02-19T11:30:52.210Z,42.63
2019-02-19T11:33:00.067Z,41.75
2019-02-19T11:35:08.811Z,42.37
2019-02-19T11:37:16.506Z,41.95
2019-02-19T11:39:24.451Z,41.69
2019-02-19T11:41:32.255Z,41.96
2019-02-19T11:43:40.099Z,41.64
2019-02-19T11:45:47.804Z,41.47
2019-02-19T11:47:55.386Z,41.85
2019-02-19T11:50:03.166Z,41.72
2019-02-19T11:52:10.976Z,41.28
2019-02-19T11:54:18.574Z,41.58
2019-02-19T11:56:26.279Z,40.20
2019-02-19T11:58:33.818Z,42.58
2019-02-19T12:00:42.460Z,41.24
2019-02-19T12:02:50.410Z,40.41
2019-02-19T12:04:58.669Z,40.79
2019-02-19T12:07:06.453Z,40.67
2019-02-19T12:09:32.622Z,41.33
2019-02-19T12:11:40.253Z,40.24
2019-02-19T12:13:47.924Z,40.16
2019-02-19T12:15:55.592Z,40.86
2019-02-19T12:18:03.379Z,40.63
2019-02-19T12:20:11.709Z,40.84
2019-02-19T12:22:19.411Z,40.72
2019-02-19T12:24:26.976Z,40.64
2019-02-19T12:26:34.701Z,40.89
2019-02-19T12:28:42.552Z,40.05
2019-02-19T12:30:50.323Z,40.41
2019-02-19T12:32:58.041Z,40.78
2019-02-19T12:35:06.134Z,40.44
2019-02-19T12:37:13.897Z,40.11
2019-02-19T12:39:21.474Z,39.81
2019-02-19T12:41:29.264Z,40.78
2019-02-19T12:43:37.152Z,39.83
2019-02-19T12:45:44.907Z,39.58
2019-02-19T12:47:52.671Z,41.10
2019-02-19T12:50:00.392Z,41.44
2019-02-19T12:52:08.046Z,39.66
2019-02-19T12:54:15.772Z,40.41
2019-02-19T12:56:23.954Z,39.44
2019-02-19T12:58:31.606Z,40.09
2019-02-19T13:00:39.759Z,40.88
2019-02-19T13:02:47.620Z,40.30
2019-02-19T13:04:55.386Z,40.59
2019-02-19T13:07:03.214Z,40.20
2019-02-19T13:09:11.638Z,39.57
2019-02-19T13:11:19.474Z,40.55
2019-02-19T13:13:27.394Z,39.90
2019-02-19T13:15:35.170Z,40.50
2019-02-19T13:17:43.082Z,40.05
2019-02-19T13:19:50.869Z,40.26
2019-02-19T13:21:58.548Z,40.65
2019-02-19T13:24:06.872Z,40.58
2019-02-19T13:26:15.828Z,40.08
2019-02-19T13:28:23.561Z,39.73
2019-02-19T13:30:31.429Z,40.23
2019-02-19T13:32:39.814Z,39.92
2019-02-19T13:34:47.720Z,39.75
2019-02-19T13:36:55.482Z,40.32
2019-02-19T13:39:03.660Z,39.58
2019-02-19T13:41:11.391Z,40.22
2019-02-19T13:43:19.224Z,40.62
2019-02-19T13:45:27.051Z,41.23
2019-02-19T13:47:34.833Z,40.39
2019-02-19T13:49:42.670Z,40.45
2019-02-19T13:51:50.669Z,39.92
2019-02-19T13:54:17.515Z,40.04
2019-02-19T13:56:25.429Z,40.10
2019-02-19T13:58:33.166Z,40.09
2019-02-19T14:00:54.915Z,40.27
2019-02-19T14:03:02.610Z,40.98
2019-02-19T14:05:12.210Z,41.08
2019-02-19T14:07:20.164Z,41.72
2019-02-19T14:09:28.099Z,41.93
2019-02-19T14:11:44.528Z,41.92
2019-02-19T14:14:24.658Z,41.22
2019-02-19T14:16:41.461Z,41.73
2019-02-19T14:19:06.463Z,41.21
2019-02-19T14:21:27.562Z,40.85
2019-02-19T14:24:00.120Z,41.83
2019-02-19T14:26:34.163Z,41.97
2019-02-19T14:29:09.302Z,43.08
2019-02-19T14:31:57.403Z,42.26
2019-02-19T14:34:29.234Z,44.30
2019-02-19T14:36:58.498Z,42.34
2019-02-19T14:39:28.002Z,42.50
2019-02-19T14:42:03.495Z,42.85
2019-02-19T14:44:37.338Z,43.42
2019-02-19T14:47:00.896Z,44.53
2019-02-19T14:49:47.358Z,45.01
2019-02-19T14:52:12.453Z,44.80
2019-02-19T14:54:41.997Z,44.93
2019-02-19T14:56:59.233Z,44.62
2019-02-19T14:59:17.896Z,45.81
2019-02-19T15:02:02.672Z,45.76
2019-02-19T15:04:33.668Z,47.12
2019-02-19T15:06:56.219Z,46.63
2019-02-19T15:09:25.323Z,47.13
2019-02-19T15:11:52.020Z,47.12
2019-02-19T15:14:23.980Z,48.30
2019-02-19T15:17:05.345Z,47.41
2019-02-19T15:19:23.273Z,47.93
2019-02-19T15:21:57.009Z,47.36
2019-02-19T15:24:22.180Z,47.66
2019-02-19T15:26:43.248Z,47.70
2019-02-19T15:29:12.904Z,48.83
2019-02-19T15:31:54.591Z,47.60
2019-02-19T15:34:23.635Z,49.33
2019-02-19T15:36:42.990Z,47.96
2019-02-19T15:39:11.119Z,47.39
2019-02-19T15:41:44.721Z,47.28
2019-02-19T15:44:03.715Z,47.33
2019-02-19T15:46:39.414Z,47.54
2019-02-19T15:49:02.456Z,47.74
2019-02-19T15:51:43.564Z,48.11
2019-02-19T15:54:09.124Z,47.65
2019-02-19T15:56:34.095Z,47.95
2019-02-19T15:59:06.835Z,48.31
2019-02-19T16:01:39.812Z,48.18
2019-02-19T16:04:15.640Z,48.63
2019-02-19T16:07:00.534Z,49.43
2019-02-19T16:09:32.440Z,49.36
2019-02-19T16:12:01.658Z,49.02
2019-02-19T16:14:28.117Z,49.61
2019-02-19T16:17:06.911Z,49.58
2019-02-19T16:19:22.876Z,49.83
2019-02-19T16:21:58.525Z,50.27
2019-02-19T16:24:37.306Z,50.74
2019-02-19T16:27:07.020Z,50.92
2019-02-19T16:29:32.202Z,51.27
2019-02-19T16:31:57.566Z,51.52
2019-02-19T16:34:17.834Z,51.51
2019-02-19T16:36:36.294Z,51.73
2019-02-19T16:39:05.731Z,52.88
2019-02-19T16:41:22.049Z,52.00
2019-02-19T16:43:54.363Z,53.44
2019-02-19T16:46:09.890Z,52.98
2019-02-19T16:48:36.526Z,52.47
2019-02-19T16:50:57.526Z,53.70
2019-02-19T16:53:33.221Z,54.73
2019-02-19T16:56:05.894Z,54.63
2019-02-19T16:58:38.549Z,54.88
2019-02-19T17:00:55.948Z,53.61
2019-02-19T17:03:28.652Z,52.82
2019-02-19T17:05:55.093Z,52.77
2019-02-19T17:08:32.711Z,52.53
2019-02-19T17:11:08.306Z,52.77
2019-02-19T17:13:23.691Z,52.54
2019-02-19T17:15:51.774Z,52.62
2019-02-19T17:18:16.977Z,52.82
2019-02-19T17:20:52.755Z,53.39
2019-02-19T17:23:06.522Z,53.26
2019-02-19T17:25:21.220Z,53.61
2019-02-19T17:27:38.007Z,53.70
2019-02-19T17:29:56.883Z,53.99
2019-02-19T17:32:12.917Z,53.83
2019-02-19T17:34:54.957Z,54.46
2019-02-19T17:37:17.591Z,54.52
2019-02-19T17:39:34.498Z,54.55
2019-02-19T17:41:50.817Z,54.64
2019-02-19T17:44:17.432Z,54.65
2019-02-19T17:46:42.669Z,54.94
2019-02-19T17:49:16.706Z,54.81
2019-02-19T17:51:46.486Z,54.84
2019-02-19T17:54:16.059Z,55.20
2019-02-19T17:56:41.180Z,55.37
2019-02-19T17:58:58.504Z,55.65
2019-02-19T18:01:34.359Z,55.29
2019-02-19T18:04:00.121Z,55.63
2019-02-19T18:06:41.994Z,55.72
2019-02-19T18:09:08.823Z,55.73
2019-02-19T18:11:38.919Z,55.79
2019-02-19T18:14:16.811Z,55.98
2019-02-19T18:16:50.800Z,56.05
2019-02-19T18:18:58.552Z,55.98
2019-02-19T18:21:06.299Z,56.78
2019-02-19T18:23:14.157Z,56.68
2019-02-19T18:25:22.157Z,57.00
2019-02-19T18:27:30.157Z,56.99
2019-02-19T18:29:38.057Z,58.10
2019-02-19T18:31:46.364Z,57.87
2019-02-19T18:33:54.735Z,58.12
2019-02-19T18:36:02.833Z,58.34
2019-02-19T18:38:10.613Z,58.72
2019-02-19T18:40:18.612Z,59.67
2019-02-19T18:42:26.806Z,60.67
2019-02-19T18:44:34.763Z,62.07
2019-02-19T18:46:42.562Z,63.22
2019-02-19T18:48:52.016Z,64.82
2019-02-19T18:51:00.050Z,64.11
2019-02-19T18:53:08.038Z,64.80
2019-02-19T18:55:16.757Z,65.27
2019-02-19T18:57:25.022Z,65.41
2019-02-19T18:59:32.774Z,64.99
2019-02-19T19:01:40.989Z,65.03
2019-02-19T19:03:50.315Z,65.42
2019-02-19T19:05:58.484Z,66.45
2019-02-19T19:08:06.378Z,66.80
2019-02-19T19:10:14.981Z,67.77
2019-02-19T19:12:22.833Z,67.90
2019-02-19T19:14:30.804Z,69.05
2019-02-19T19:16:38.800Z,68.69
2019-02-19T19:18:48.092Z,69.06
2019-02-19T19:20:56.177Z,70.32
2019-02-19T19:23:04.902Z,70.75
2019-02-19T19:25:12.535Z,70.73
2019-02-19T19:27:20.548Z,70.84
2019-02-19T19:29:28.774Z,72.28
2019-02-19T19:31:36.868Z,71.55
2019-02-19T19:33:45.018Z,71.79
2019-02-19T19:35:52.977Z,72.12
2019-02-19T19:38:01.610Z,71.53
2019-02-19T19:40:09.727Z,71.22
2019-02-19T19:42:17.650Z,71.61
2019-02-19T19:44:25.345Z,72.06
2019-02-19T19:46:33.341Z,72.05
2019-02-19T19:48:41.220Z,71.34
2019-02-19T19:50:49.438Z,72.10
2019-02-19T19:52:57.937Z,71.43
2019-02-19T19:55:06.389Z,71.44
2019-02-19T19:57:14.333Z,71.38
2019-02-19T19:59:23.458Z,70.58
2019-02-19T20:01:32.744Z,70.50
2019-02-19T20:03:41.962Z,70.90
2019-02-19T20:05:51.489Z,70.89
2019-02-19T20:08:00.128Z,70.94
2019-02-19T20:10:09.912Z,70.67
2019-02-19T20:12:18.898Z,71.11
2019-02-19T20:14:28.612Z,70.86
2019-02-19T20:16:37.775Z,70.62
2019-02-19T20:18:47.661Z,70.25
2019-02-19T20:20:56.951Z,70.68
2019-02-19T20:23:06.416Z,70.20
2019-02-19T20:25:15.390Z,70.13
2019-02-19T20:27:24.596Z,70.17
2019-02-19T20:29:34.562Z,70.56
2019-02-19T20:31:44.483Z,70.67
2019-02-19T20:33:53.909Z,70.86
2019-02-19T20:36:03.206Z,70.47
2019-02-19T20:38:13.003Z,70.90
2019-02-19T20:40:22.802Z,70.61
2019-02-19T20:42:32.552Z,71.12
2019-02-19T20:44:41.802Z,71.06
2019-02-19T20:46:50.687Z,70.40
2019-02-19T20:48:58.945Z,70.69
2019-02-19T20:51:08.331Z,70.35
2019-02-19T20:53:17.568Z,71.12
2019-02-19T20:55:36.542Z,69.85
2019-02-19T20:57:38.128Z,69.96
2019-02-19T20:59:47.557Z,69.82
2019-02-19T21:01:56.902Z,69.84
2019-02-19T21:04:06.316Z,69.96
2019-02-19T21:06:16.209Z,69.83
2019-02-19T21:08:25.504Z,69.62
2019-02-19T21:10:34.941Z,69.35
2019-02-19T21:12:43.161Z,69.56
2019-02-19T21:14:52.569Z,69.13
2019-02-19T21:17:01.593Z,69.26
2019-02-19T21:19:11.337Z,69.29
2019-02-19T21:21:21.238Z,69.09
2019-02-19T21:23:31.355Z,69.50
2019-02-19T21:25:41.656Z,69.20
2019-02-19T21:27:51.735Z,69.54
2019-02-19T21:30:01.332Z,69.26
2019-02-19T21:32:11.297Z,69.37
2019-02-19T21:34:21.727Z,69.50
2019-02-19T21:36:31.655Z,69.54
2019-02-19T21:38:42.087Z,69.89
2019-02-19T21:40:52.547Z,69.90
2019-02-19T21:43:02.681Z,70.25
2019-02-19T21:45:13.580Z,69.88
2019-02-19T21:47:23.473Z,70.32
2019-02-19T21:49:33.359Z,69.80
2019-02-19T21:51:43.368Z,70.22
2019-02-19T21:53:53.622Z,69.68
2019-02-19T21:56:03.245Z,70.57
2019-02-19T21:58:13.014Z,70.25
2019-02-19T22:00:22.791Z,70.21
2019-02-19T22:02:32.470Z,70.06
2019-02-19T22:04:42.049Z,70.27
2019-02-19T22:06:51.986Z,70.38
2019-02-19T22:09:01.816Z,70.78
2019-02-19T22:11:11.810Z,70.63
2019-02-19T22:13:21.780Z,70.85
2019-02-19T22:15:31.371Z,69.83
2019-02-19T22:17:40.692Z,70.18
2019-02-19T22:19:50.053Z,70.30
2019-02-19T22:22:08.018Z,69.95
2019-02-19T22:24:35.834Z,70.42
2019-02-19T22:26:45.830Z,70.14
2019-02-19T22:28:55.317Z,70.14
2019-02-19T22:31:04.487Z,69.90
2019-02-19T22:33:13.630Z,70.20
2019-02-19T22:35:22.936Z,69.94
2019-02-19T22:37:31.900Z,70.60
2019-02-19T22:39:40.873Z,70.45
2019-02-19T22:41:49.680Z,70.39
2019-02-19T22:43:58.361Z,70.67
2019-02-19T22:46:06.817Z,70.36
2019-02-19T22:48:15.720Z,70.41
2019-02-19T22:50:24.408Z,70.56
2019-02-19T22:52:32.726Z,70.95
2019-02-19T22:55:05.265Z,71.05
2019-02-19T22:57:13.220Z,71.31
2019-02-19T22:59:21.601Z,71.10
2019-02-19T23:01:40.140Z,70.99
2019-02-19T23:03:48.067Z,71.27
2019-02-19T23:05:55.976Z,71.06
2019-02-19T23:08:04.081Z,71.66
2019-02-19T23:10:12.006Z,71.27
2019-02-19T23:12:19.643Z,70.70
2019-02-19T23:14:27.722Z,70.71
2019-02-19T23:16:35.686Z,70.55
2019-02-19T23:18:43.600Z,70.29
2019-02-19T23:20:51.576Z,70.46
2019-02-19T23:22:59.332Z,70.23
2019-02-19T23:25:07.609Z,69.55
2019-02-19T23:27:16.165Z,69.46
2019-02-19T23:29:23.994Z,69.19
2019-02-19T23:31:31.511Z,68.99
2019-02-19T23:33:39.429Z,69.29
2019-02-19T23:35:51.643Z,69.30
2019-02-19T23:37:59.458Z,69.45
2019-02-19T23:40:07.730Z,69.06
2019-02-19T23:42:15.457Z,69.07
2019-02-19T23:45:11.507Z,69.08
2019-02-19T23:46:32.989Z,68.92
2019-02-19T23:48:40.721Z,69.00
2019-02-19T23:50:48.589Z,68.94
2019-02-19T23:52:56.559Z,68.92
2019-02-19T23:55:04.217Z,68.78
2019-02-19T23:57:11.895Z,68.67
2019-02-19T23:59:19.702Z,68.50
